Hickory, Kentucky
Current Conditions -  °F | °C
As of 10:35 AM on Saturday 25 Oct 2014 (Local Time) from KM25 Reporting Station
Clear Clear  
Wind Chill: 20°   Ceiling: Unl
Heat Index: 20°   Visibility: 10mi
Dew Point: 15°   Wind: 8mph
Humidity: 73%   Direction: 290°WNW
Pressure: 30.08"   Gusts: NA
Location:  36.82°N, 88.65°W
Report Text: KM25 251535Z AUTO 29007KT 10SM CLR 20/15 A3008 RMK AO2
Loading
Personal Weather Stations






























Interactive Weather Map
Tropical Storm Tracking
New forecast layout! Learn more

10-Day Weather Forecast

Advertisements
Track Severe Weather on mobile